Terminal Aerodrome Forecast
Issued by NWS Charleston, WV

Current Version | Previous Version | Text Only | Print | Product List | Glossary Off
Versions: 1 2 3 4 5 6 7 8 9 10 11 12 13 14 15 16 17 18 19 20 21 22 23 24

000
FTUS41 KRLX 260800 AAA
TAFCRW
TAF AMD
KCRW 260841Z 2609/2706 00000KT P6SM SKC
     FM261600 19005KT P6SM FEW040
     FM261800 19008G18KT P6SM SCT050
     FM262200 VRB04KT P6SM FEW060=

USA.gov is the U.S. government's official web portal to all federal, state and local government web resources and services.